createdAt,value
2022-12-22T00:00:25.360Z,80.98
2022-12-22T00:03:16.054Z,80.57
2022-12-22T00:06:06.742Z,81.24
2022-12-22T00:09:03.574Z,80.73
2022-12-22T00:11:56.017Z,80.98
2022-12-22T00:14:46.714Z,80.77
2022-12-22T00:17:45.600Z,80.60
2022-12-22T00:20:38.672Z,80.62
2022-12-22T00:23:29.734Z,80.79
2022-12-22T00:26:20.312Z,80.67
2022-12-22T00:29:11.004Z,80.44
2022-12-22T00:32:02.829Z,80.62
2022-12-22T00:35:01.639Z,80.58
2022-12-22T00:37:56.726Z,80.57
2022-12-22T00:40:47.656Z,80.28
2022-12-22T00:43:37.909Z,80.59
2022-12-22T00:46:30.939Z,80.25
2022-12-22T00:49:21.709Z,80.50
2022-12-22T00:52:12.453Z,80.68
2022-12-22T00:55:03.093Z,80.39
2022-12-22T00:57:54.439Z,80.70
2022-12-22T01:00:45.174Z,80.55
2022-12-22T01:03:35.804Z,80.58
2022-12-22T01:06:29.636Z,80.77
2022-12-22T01:09:20.377Z,80.89
2022-12-22T01:12:10.889Z,81.07
2022-12-22T01:15:01.549Z,80.97
2022-12-22T01:17:51.907Z,80.42
2022-12-22T01:20:42.640Z,80.64
2022-12-22T01:23:33.341Z,80.29
2022-12-22T01:26:27.970Z,80.29
2022-12-22T01:29:18.769Z,80.61
2022-12-22T01:32:09.224Z,80.88
2022-12-22T01:35:00.532Z,80.90
2022-12-22T01:37:51.256Z,81.04
2022-12-22T01:40:43.847Z,80.81
2022-12-22T01:43:46.621Z,80.95
2022-12-22T01:46:43.521Z,81.41
2022-12-22T01:49:37.276Z,81.10
2022-12-22T01:52:31.056Z,81.35
2022-12-22T01:55:26.806Z,81.18
2022-12-22T01:58:17.326Z,80.93
2022-12-22T02:01:08.656Z,81.01
2022-12-22T02:03:59.276Z,81.08
2022-12-22T02:07:00.463Z,80.74
2022-12-22T02:10:09.070Z,80.75
2022-12-22T02:13:22.632Z,81.17
2022-12-22T02:16:33.188Z,80.99
2022-12-22T02:19:33.985Z,80.99
2022-12-22T02:23:01.892Z,81.16
2022-12-22T02:26:16.553Z,81.05
2022-12-22T02:29:08.267Z,80.88
2022-12-22T02:32:00.575Z,81.07
2022-12-22T02:34:51.376Z,81.22
2022-12-22T02:37:50.667Z,81.28
2022-12-22T02:41:19.264Z,81.15
2022-12-22T02:44:35.387Z,81.21
2022-12-22T02:47:52.988Z,81.04
2022-12-22T02:51:06.036Z,81.34
2022-12-22T02:53:58.578Z,81.38
2022-12-22T02:56:49.250Z,80.76
2022-12-22T02:59:39.942Z,81.16
2022-12-22T03:02:32.039Z,80.66
2022-12-22T03:05:22.688Z,80.94
2022-12-22T03:08:14.004Z,81.01
2022-12-22T03:11:04.784Z,81.41
2022-12-22T03:13:55.694Z,80.98
2022-12-22T03:16:46.008Z,80.77
2022-12-22T03:19:36.813Z,81.26
2022-12-22T03:22:27.564Z,80.66
2022-12-22T03:25:18.288Z,80.66
2022-12-22T03:27:50.233Z,80.92
2022-12-22T03:30:22.123Z,80.88
2022-12-22T03:32:54.086Z,80.71
2022-12-22T03:35:26.164Z,80.57
2022-12-22T03:37:58.002Z,80.52
2022-12-22T03:40:31.436Z,80.38
2022-12-22T03:43:22.077Z,80.56
2022-12-22T03:46:15.885Z,80.86
2022-12-22T03:49:07.985Z,80.47
2022-12-22T03:51:45.341Z,80.57
2022-12-22T03:54:21.231Z,80.60
2022-12-22T03:56:54.203Z,80.38
2022-12-22T03:59:26.310Z,80.46
2022-12-22T04:01:58.679Z,80.38
2022-12-22T04:04:34.109Z,80.38
2022-12-22T04:07:06.053Z,80.23
2022-12-22T04:09:57.949Z,80.26
2022-12-22T04:12:48.625Z,80.47
2022-12-22T04:15:25.575Z,80.04
2022-12-22T04:17:58.597Z,80.07
2022-12-22T04:20:30.606Z,80.43
2022-12-22T04:23:02.797Z,80.54
2022-12-22T04:25:34.801Z,80.26
2022-12-22T04:28:06.770Z,80.08
2022-12-22T04:30:38.811Z,79.96
2022-12-22T04:33:10.787Z,80.01
2022-12-22T04:35:44.634Z,80.12
2022-12-22T04:38:16.633Z,79.60
2022-12-22T04:40:48.538Z,79.86
2022-12-22T04:43:20.505Z,79.86
2022-12-22T04:45:54.359Z,79.55
2022-12-22T04:48:28.237Z,79.65
2022-12-22T04:51:01.122Z,79.87
2022-12-22T04:53:33.221Z,80.30
2022-12-22T04:56:07.834Z,80.41
2022-12-22T04:58:39.796Z,80.33
2022-12-22T05:01:14.226Z,80.46
2022-12-22T05:03:46.829Z,80.36
2022-12-22T05:06:19.299Z,80.40
2022-12-22T05:08:51.435Z,80.19
2022-12-22T05:11:23.615Z,80.14
2022-12-22T05:13:55.729Z,80.27
2022-12-22T05:16:27.741Z,80.13
2022-12-22T05:18:59.716Z,80.20
2022-12-22T05:21:31.707Z,79.97
2022-12-22T05:24:04.276Z,79.80
2022-12-22T05:26:36.199Z,79.71
2022-12-22T05:29:08.157Z,79.70
2022-12-22T05:31:46.821Z,79.78
2022-12-22T05:34:19.225Z,79.85
2022-12-22T05:36:51.220Z,79.75
2022-12-22T05:39:23.212Z,79.84
2022-12-22T05:41:55.175Z,80.00
2022-12-22T05:44:27.177Z,79.84
2022-12-22T05:46:59.098Z,79.98
2022-12-22T05:49:31.108Z,79.69
2022-12-22T05:52:03.253Z,80.07
2022-12-22T05:54:35.326Z,80.11
2022-12-22T05:57:07.326Z,80.15
2022-12-22T05:59:39.374Z,79.86
2022-12-22T06:02:11.644Z,79.84
2022-12-22T06:04:43.674Z,80.14
2022-12-22T06:07:15.684Z,80.32
2022-12-22T06:09:47.637Z,80.00
2022-12-22T06:12:19.627Z,80.00
2022-12-22T06:14:52.043Z,80.16
2022-12-22T06:17:24.101Z,80.08
2022-12-22T06:19:56.104Z,79.97
2022-12-22T06:22:28.052Z,80.17
2022-12-22T06:25:00.265Z,79.95
2022-12-22T06:27:32.228Z,80.05
2022-12-22T06:30:04.809Z,79.91
2022-12-22T06:32:38.226Z,79.76
2022-12-22T06:35:10.921Z,79.82
2022-12-22T06:37:49.356Z,79.71
2022-12-22T06:40:21.389Z,79.43
2022-12-22T06:43:09.593Z,79.63
2022-12-22T06:45:44.116Z,79.51
2022-12-22T06:48:16.492Z,79.34
2022-12-22T06:50:48.640Z,79.65
2022-12-22T06:53:21.132Z,79.42
2022-12-22T06:55:54.610Z,79.30
2022-12-22T06:58:27.083Z,79.47
2022-12-22T07:00:59.489Z,79.33
2022-12-22T07:03:31.558Z,79.57
2022-12-22T07:06:04.783Z,78.97
2022-12-22T07:08:36.836Z,79.09
2022-12-22T07:11:13.757Z,79.40
2022-12-22T07:13:46.537Z,79.29
2022-12-22T07:16:20.329Z,79.19
2022-12-22T07:18:52.572Z,79.11
2022-12-22T07:21:26.693Z,79.27
2022-12-22T07:23:58.782Z,78.91
2022-12-22T07:26:31.003Z,78.91
2022-12-22T07:29:02.950Z,78.98
2022-12-22T07:31:35.431Z,78.72
2022-12-22T07:34:07.709Z,78.50
2022-12-22T07:36:39.939Z,78.46
2022-12-22T07:39:12.993Z,78.49
2022-12-22T07:42:03.489Z,78.56
2022-12-22T07:44:35.462Z,78.50
2022-12-22T07:47:07.405Z,78.55
2022-12-22T07:49:58.097Z,78.37
2022-12-22T07:52:30.019Z,78.37
2022-12-22T07:55:01.953Z,78.67
2022-12-22T07:57:36.200Z,78.53
2022-12-22T08:00:08.904Z,78.58
2022-12-22T08:02:41.142Z,78.77
2022-12-22T08:05:13.262Z,78.75
2022-12-22T08:07:45.571Z,78.47
2022-12-22T08:10:18.839Z,78.42
2022-12-22T08:12:51.283Z,78.57
2022-12-22T08:15:23.250Z,78.52
2022-12-22T08:17:55.173Z,78.48
2022-12-22T08:20:27.201Z,78.68
2022-12-22T08:22:59.964Z,78.42
2022-12-22T08:25:34.643Z,78.49
2022-12-22T08:28:06.746Z,78.28
2022-12-22T08:30:38.925Z,78.63
2022-12-22T08:33:10.893Z,79.00
2022-12-22T08:35:43.830Z,78.86
2022-12-22T08:38:15.864Z,79.14
2022-12-22T08:40:48.508Z,79.11
2022-12-22T08:43:22.188Z,78.82
2022-12-22T08:45:54.297Z,78.80
2022-12-22T08:48:26.267Z,78.92
2022-12-22T08:50:58.823Z,79.07
2022-12-22T08:54:03.251Z,79.04
2022-12-22T08:56:22.713Z,79.05
2022-12-22T08:58:54.617Z,78.69
2022-12-22T09:01:26.738Z,78.57
2022-12-22T09:03:59.339Z,78.29
2022-12-22T09:06:38.340Z,77.87
2022-12-22T09:09:14.153Z,77.70
2022-12-22T09:11:46.424Z,77.49
2022-12-22T09:14:20.597Z,77.23
2022-12-22T09:16:52.653Z,76.81
2022-12-22T09:19:24.842Z,76.56
2022-12-22T09:21:57.167Z,76.53
2022-12-22T09:24:29.311Z,76.56
2022-12-22T09:27:03.768Z,76.46
2022-12-22T09:29:38.339Z,76.07
2022-12-22T09:32:10.359Z,76.19
2022-12-22T09:34:42.312Z,76.10
2022-12-22T09:37:16.077Z,75.73
2022-12-22T09:39:48.768Z,75.40
2022-12-22T09:42:21.987Z,75.29
2022-12-22T09:44:54.034Z,75.23
2022-12-22T09:47:36.382Z,74.99
2022-12-22T09:50:16.238Z,75.28
2022-12-22T09:52:51.428Z,74.95
2022-12-22T09:55:26.378Z,75.11
2022-12-22T09:57:58.390Z,75.51
2022-12-22T10:00:30.489Z,75.25
2022-12-22T10:03:27.914Z,75.23
2022-12-22T10:06:11.062Z,75.37
2022-12-22T10:08:43.461Z,75.16
2022-12-22T10:11:18.165Z,75.43
2022-12-22T10:13:50.120Z,75.46
2022-12-22T10:16:27.888Z,75.44
2022-12-22T10:19:12.628Z,75.17
2022-12-22T10:21:47.165Z,75.16
2022-12-22T10:24:28.778Z,75.12
2022-12-22T10:27:01.976Z,75.08
2022-12-22T10:29:34.822Z,75.02
2022-12-22T10:32:16.767Z,75.02
2022-12-22T10:35:18.069Z,75.16
2022-12-22T10:37:50.024Z,75.25
2022-12-22T10:40:23.282Z,75.15
2022-12-22T10:42:57.788Z,74.83
2022-12-22T10:45:29.905Z,74.56
2022-12-22T10:48:02.128Z,74.68
2022-12-22T10:50:34.172Z,74.67
2022-12-22T10:53:06.729Z,74.23
2022-12-22T10:55:39.657Z,74.19
2022-12-22T10:58:11.628Z,74.44
2022-12-22T11:00:45.255Z,74.22
2022-12-22T11:03:31.362Z,74.37
2022-12-22T11:06:13.053Z,74.08
2022-12-22T11:08:51.284Z,74.38
2022-12-22T11:11:38.216Z,74.03
2022-12-22T11:14:15.752Z,73.88
2022-12-22T11:16:52.846Z,73.62
2022-12-22T11:19:46.391Z,73.83
2022-12-22T11:22:46.033Z,73.87
2022-12-22T11:25:37.246Z,73.93
2022-12-22T11:28:12.125Z,74.23
2022-12-22T11:30:55.497Z,73.74
2022-12-22T11:33:42.533Z,73.66
2022-12-22T11:36:34.655Z,73.96
2022-12-22T11:39:16.719Z,74.18
2022-12-22T11:42:11.428Z,74.06
2022-12-22T11:45:09.608Z,74.46
2022-12-22T11:47:51.179Z,74.49
2022-12-22T11:51:00.709Z,74.36
2022-12-22T11:54:15.497Z,74.25
2022-12-22T11:56:55.775Z,74.19
2022-12-22T11:59:58.689Z,74.02
2022-12-22T12:02:59.479Z,73.96
2022-12-22T12:06:02.678Z,74.27
2022-12-22T12:08:34.799Z,74.24
2022-12-22T12:11:09.732Z,74.24
2022-12-22T12:13:47.795Z,74.34
2022-12-22T12:16:35.413Z,74.40
2022-12-22T12:19:31.923Z,74.60
2022-12-22T12:22:05.831Z,74.60
2022-12-22T12:25:11.854Z,74.47
2022-12-22T12:28:04.883Z,74.53
2022-12-22T12:30:52.633Z,74.54
2022-12-22T12:33:48.429Z,74.76
2022-12-22T12:36:32.389Z,74.78
2022-12-22T12:39:19.735Z,74.67
2022-12-22T12:42:29.130Z,74.90
2022-12-22T12:45:02.988Z,74.67
2022-12-22T12:47:36.803Z,75.07
2022-12-22T12:50:32.008Z,75.11
2022-12-22T12:53:08.281Z,75.05
2022-12-22T12:55:40.216Z,75.21
2022-12-22T12:58:34.973Z,75.03
2022-12-22T13:01:12.726Z,75.47
2022-12-22T13:04:05.285Z,75.62
2022-12-22T13:06:49.971Z,75.83
2022-12-22T13:12:55.288Z,76.56
2022-12-22T13:15:29.556Z,76.67
2022-12-22T13:18:03.998Z,76.66
2022-12-22T13:20:37.982Z,76.82
2022-12-22T13:23:15.785Z,76.88
2022-12-22T13:25:53.481Z,77.00
2022-12-22T13:28:27.461Z,76.76
2022-12-22T13:31:05.672Z,76.84
2022-12-22T13:33:40.690Z,77.02
2022-12-22T13:36:22.392Z,76.90
2022-12-22T13:39:02.686Z,76.90
2022-12-22T13:41:35.054Z,77.19
2022-12-22T13:44:10.801Z,76.98
2022-12-22T13:46:43.526Z,76.94
2022-12-22T13:49:36.144Z,76.83
2022-12-22T13:52:15.416Z,76.82
2022-12-22T13:54:47.899Z,76.80
2022-12-22T13:57:22.378Z,76.86
2022-12-22T13:59:55.442Z,76.77
2022-12-22T14:02:33.657Z,76.68
2022-12-22T14:05:11.855Z,76.71
2022-12-22T14:08:04.023Z,76.76
2022-12-22T14:10:44.134Z,76.76
2022-12-22T14:13:22.795Z,77.37
2022-12-22T14:16:05.901Z,76.80
2022-12-22T14:18:38.710Z,77.00
2022-12-22T14:21:12.362Z,77.27
2022-12-22T14:23:44.529Z,77.38
2022-12-22T14:26:24.264Z,77.37
2022-12-22T14:28:57.313Z,77.30
2022-12-22T14:31:29.555Z,77.27
2022-12-22T14:34:05.654Z,77.24
2022-12-22T14:36:46.316Z,77.43
2022-12-22T14:39:24.151Z,77.64
2022-12-22T14:41:59.026Z,77.81
2022-12-22T14:44:34.619Z,77.87
2022-12-22T14:47:13.115Z,77.87
2022-12-22T14:50:05.140Z,77.70
2022-12-22T14:52:45.484Z,77.60
2022-12-22T14:55:31.426Z,77.86
2022-12-22T14:58:12.629Z,77.90
2022-12-22T15:00:47.118Z,77.95
2022-12-22T15:03:25.152Z,78.07
2022-12-22T15:05:57.480Z,78.34
2022-12-22T15:08:43.107Z,78.52
2022-12-22T15:11:19.876Z,78.67
2022-12-22T15:13:54.329Z,78.81
2022-12-22T15:16:26.525Z,78.84
2022-12-22T15:18:58.836Z,78.85
2022-12-22T15:21:31.165Z,78.82
2022-12-22T15:24:03.845Z,78.83
2022-12-22T15:26:38.057Z,78.94
2022-12-22T15:29:10.161Z,78.82
2022-12-22T15:31:43.512Z,78.87
2022-12-22T15:34:31.029Z,78.76
2022-12-22T15:37:03.000Z,78.68
2022-12-22T15:39:34.986Z,78.52
2022-12-22T15:42:07.112Z,78.58
2022-12-22T15:44:39.534Z,78.80
2022-12-22T15:47:13.014Z,78.56
2022-12-22T15:49:45.111Z,78.84
2022-12-22T15:52:17.524Z,78.82
2022-12-22T15:54:49.669Z,78.77
2022-12-22T15:57:21.500Z,78.83
2022-12-22T15:59:53.498Z,79.22
2022-12-22T16:02:25.592Z,79.20
2022-12-22T16:04:57.896Z,79.62
2022-12-22T16:07:31.584Z,79.21
2022-12-22T16:10:04.685Z,78.93
2022-12-22T16:12:37.775Z,79.07
2022-12-22T16:15:14.209Z,79.38
2022-12-22T16:17:46.167Z,79.13
2022-12-22T16:20:18.155Z,79.47
2022-12-22T16:22:52.459Z,79.25
2022-12-22T16:25:34.268Z,79.04
2022-12-22T16:28:07.170Z,79.42
2022-12-22T16:30:39.694Z,79.32
2022-12-22T16:33:12.957Z,79.37
2022-12-22T16:35:45.094Z,78.99
2022-12-22T16:38:19.210Z,79.57
2022-12-22T16:40:53.750Z,79.66
2022-12-22T16:43:51.493Z,79.49
2022-12-22T16:46:24.291Z,79.34
2022-12-22T16:49:02.391Z,79.22
2022-12-22T16:51:34.943Z,79.13
2022-12-22T16:54:06.878Z,79.27
2022-12-22T16:56:39.445Z,79.27
2022-12-22T16:59:11.482Z,79.25
2022-12-22T17:01:52.667Z,79.29
2022-12-22T17:04:32.857Z,79.08
2022-12-22T17:07:06.823Z,79.12
2022-12-22T17:09:42.942Z,79.16
2022-12-22T17:12:35.151Z,79.45
2022-12-22T17:15:17.484Z,78.96
2022-12-22T17:17:49.625Z,79.14
2022-12-22T17:20:24.041Z,79.25
2022-12-22T17:22:59.989Z,79.12
2022-12-22T17:25:32.211Z,79.09
2022-12-22T17:28:04.397Z,79.30
2022-12-22T17:30:36.662Z,79.41
2022-12-22T17:33:16.216Z,79.21
2022-12-22T17:35:48.316Z,79.16
2022-12-22T17:38:22.560Z,79.46
2022-12-22T17:40:54.766Z,79.41
2022-12-22T17:43:26.700Z,79.37
2022-12-22T17:45:58.733Z,79.25
2022-12-22T17:48:30.705Z,79.42
2022-12-22T17:51:02.775Z,79.18
2022-12-22T17:53:40.599Z,79.16
2022-12-22T17:56:18.836Z,79.06
2022-12-22T17:58:51.067Z,79.26
2022-12-22T18:01:29.546Z,79.02
2022-12-22T18:04:01.730Z,78.86
2022-12-22T18:06:35.935Z,79.10
2022-12-22T18:09:15.576Z,79.15
2022-12-22T18:11:48.841Z,79.15
2022-12-22T18:14:23.242Z,79.27
2022-12-22T18:16:55.399Z,78.85
2022-12-22T18:19:27.403Z,78.98
2022-12-22T18:21:59.359Z,79.02
2022-12-22T18:24:31.276Z,78.78
2022-12-22T18:27:03.292Z,79.00
2022-12-22T18:29:35.364Z,78.72
2022-12-22T18:32:09.628Z,78.92
2022-12-22T18:34:41.915Z,78.65
2022-12-22T18:37:16.890Z,78.66
2022-12-22T18:39:48.891Z,78.69
2022-12-22T18:42:23.067Z,78.44
2022-12-22T18:44:55.031Z,78.46
2022-12-22T18:47:27.009Z,78.21
2022-12-22T18:50:03.160Z,78.65
2022-12-22T18:52:35.211Z,78.51
2022-12-22T18:55:15.836Z,78.58
2022-12-22T18:57:49.163Z,78.19
2022-12-22T19:00:28.087Z,78.23
2022-12-22T19:03:01.654Z,78.27
2022-12-22T19:05:33.982Z,78.27
2022-12-22T19:08:05.967Z,78.15
2022-12-22T19:10:41.384Z,78.22
2022-12-22T19:13:30.113Z,78.19
2022-12-22T19:16:02.530Z,77.96
2022-12-22T19:18:34.609Z,77.96
2022-12-22T19:21:06.811Z,78.45
2022-12-22T19:23:38.772Z,78.39
2022-12-22T19:26:22.805Z,78.71
2022-12-22T19:28:57.503Z,78.47
2022-12-22T19:31:32.762Z,78.80
2022-12-22T19:34:10.630Z,78.64
2022-12-22T19:36:42.849Z,78.59
2022-12-22T19:39:14.813Z,78.58
2022-12-22T19:41:55.059Z,78.44
2022-12-22T19:44:29.965Z,78.44
2022-12-22T19:47:03.191Z,78.50
2022-12-22T19:49:35.212Z,78.47
2022-12-22T19:52:09.932Z,78.32
2022-12-22T19:54:41.888Z,78.62
2022-12-22T19:57:20.656Z,78.58
2022-12-22T19:59:54.551Z,78.36
2022-12-22T20:02:32.617Z,78.29
2022-12-22T20:05:11.596Z,78.51
2022-12-22T20:07:47.008Z,78.19
2022-12-22T20:10:19.876Z,78.22
2022-12-22T20:12:54.579Z,78.05
2022-12-22T20:15:38.335Z,78.04
2022-12-22T20:18:22.450Z,78.20
2022-12-22T20:21:06.079Z,78.14
2022-12-22T20:23:39.522Z,78.36
2022-12-22T20:26:18.057Z,78.28
2022-12-22T20:28:50.250Z,78.10
2022-12-22T20:31:24.439Z,78.58
2022-12-22T20:33:56.515Z,78.65
2022-12-22T20:36:32.230Z,78.71
2022-12-22T20:39:12.892Z,78.79
2022-12-22T20:41:52.321Z,79.02
2022-12-22T20:44:25.339Z,78.72
2022-12-22T20:46:57.327Z,78.71
2022-12-22T20:49:29.326Z,79.13
2022-12-22T20:52:01.319Z,78.84
2022-12-22T20:54:33.329Z,78.85
2022-12-22T20:57:05.375Z,79.10
2022-12-22T20:59:37.548Z,78.84
2022-12-22T21:02:24.908Z,78.82
2022-12-22T21:04:57.072Z,78.57
2022-12-22T21:07:29.156Z,78.80
2022-12-22T21:10:01.109Z,78.73
2022-12-22T21:12:33.117Z,78.83
2022-12-22T21:15:05.576Z,78.67
2022-12-22T21:17:38.532Z,78.63
2022-12-22T21:20:19.759Z,78.49
2022-12-22T21:22:51.856Z,78.57
2022-12-22T21:25:25.236Z,78.62
2022-12-22T21:27:59.351Z,78.44
2022-12-22T21:30:31.573Z,78.49
2022-12-22T21:33:03.650Z,78.33
2022-12-22T21:35:38.181Z,78.42
2022-12-22T21:38:18.168Z,78.53
2022-12-22T21:40:53.869Z,78.47
2022-12-22T21:43:26.288Z,78.58
2022-12-22T21:45:58.346Z,78.59
2022-12-22T21:48:30.394Z,78.60
2022-12-22T21:51:02.514Z,79.02
2022-12-22T21:53:34.475Z,79.27
2022-12-22T21:56:17.019Z,79.43
2022-12-22T21:58:49.013Z,79.40
2022-12-22T22:01:21.157Z,79.39
2022-12-22T22:03:53.193Z,79.40
2022-12-22T22:06:25.218Z,79.56
2022-12-22T22:08:57.188Z,79.29
2022-12-22T22:11:29.168Z,79.50
2022-12-22T22:14:01.128Z,79.61
2022-12-22T22:16:33.204Z,80.15
2022-12-22T22:19:05.178Z,80.41
2022-12-22T22:21:37.144Z,80.63
2022-12-22T22:24:09.218Z,81.18
2022-12-22T22:26:41.519Z,81.18
2022-12-22T22:29:13.696Z,81.64
2022-12-22T22:31:45.822Z,81.49
2022-12-22T22:34:17.884Z,81.20
2022-12-22T22:36:51.614Z,81.43
2022-12-22T22:39:23.872Z,81.70
2022-12-22T22:41:55.903Z,81.80
2022-12-22T22:44:28.014Z,82.21
2022-12-22T22:47:00.514Z,82.13
2022-12-22T22:49:32.535Z,81.58
2022-12-22T22:52:04.644Z,82.20
2022-12-22T22:54:37.208Z,81.99
2022-12-22T22:57:09.157Z,82.05
2022-12-22T22:59:41.304Z,82.06
2022-12-22T23:02:15.118Z,82.32
2022-12-22T23:04:47.724Z,82.13
2022-12-22T23:07:19.723Z,82.53
2022-12-22T23:09:51.593Z,82.21
2022-12-22T23:12:23.544Z,82.28
2022-12-22T23:14:55.567Z,82.20
2022-12-22T23:17:27.730Z,82.28
2022-12-22T23:20:00.127Z,82.34
2022-12-22T23:22:32.110Z,82.00
2022-12-22T23:25:04.599Z,81.99
2022-12-22T23:27:36.538Z,82.61
2022-12-22T23:30:09.620Z,81.96
2022-12-22T23:32:41.583Z,82.54
2022-12-22T23:35:13.545Z,82.63
2022-12-22T23:37:45.481Z,82.31
2022-12-22T23:40:50.644Z,82.61
2022-12-22T23:43:12.346Z,82.61
2022-12-22T23:45:44.314Z,82.22
2022-12-22T23:48:16.912Z,82.75
2022-12-22T23:50:49.142Z,82.61
2022-12-22T23:53:21.163Z,82.48
2022-12-22T23:55:53.106Z,82.70
2022-12-22T23:58:25.336Z,82.70
